Time;durP1;ratioP1;P1;durP2;ratioP2;P2;SDS_P1;SDS_P2;PMS_P1;PMS_P2;Temp;Humidity;BMP_temperature;BMP_pressure;BME280_temperature;BME280_humidity;BME280_pressure;Samples;Min_cycle;Max_cycle;Signal;HPM_P1;HPM_P2
2022/11/23 00:01:11;;;;;;;;;;;16.70;50.20;;;;;;5093969;28;19920;-70
2022/11/23 00:03:37;;;;;;;;;;;16.70;50.20;;;;;;5113297;28;19923;-71
2022/11/23 00:06:02;;;;;;;;;;;16.70;50.20;;;;;;5116336;28;20423;-71
2022/11/23 00:08:28;;;;;;;;;;;16.70;50.30;;;;;;5098143;28;20008;-71
2022/11/23 00:10:57;;;;;;;;;;;16.70;50.30;;;;;;5098149;28;19926;-71
2022/11/23 00:13:22;;;;;;;;;;;16.70;50.40;;;;;;5116545;28;19989;-71
2022/11/23 00:15:48;;;;;;;;;;;16.60;50.30;;;;;;5097952;28;19928;-72
2022/11/23 00:18:13;;;;;;;;;;;16.70;50.40;;;;;;5116035;28;20371;-70
2022/11/23 00:20:39;;;;;;;;;;;16.60;50.40;;;;;;5097660;28;19994;-71
2022/11/23 00:23:04;;;;;;;;;;;16.70;50.50;;;;;;5097597;28;19973;-72
2022/11/23 00:25:30;;;;;;;;;;;16.60;50.50;;;;;;5115815;28;19928;-71
2022/11/23 00:27:55;;;;;;;;;;;16.60;50.50;;;;;;5115700;28;19923;-70
2022/11/23 00:30:21;;;;;;;;;;;16.60;50.60;;;;;;5097737;28;20257;-71
2022/11/23 00:32:47;;;;;;;;;;;16.50;50.50;;;;;;5097657;28;20265;-71
2022/11/23 00:35:12;;;;;;;;;;;16.70;50.70;;;;;;5097658;28;19920;-70
2022/11/23 00:37:38;;;;;;;;;;;16.60;50.70;;;;;;5097118;28;20394;-71
2022/11/23 00:40:03;;;;;;;;;;;16.50;50.60;;;;;;5097284;28;19920;-71
2022/11/23 00:42:29;;;;;;;;;;;16.60;50.70;;;;;;5097434;28;19970;-71
2022/11/23 00:44:54;;;;;;;;;;;16.50;50.70;;;;;;5097147;28;19920;-71
2022/11/23 00:47:20;;;;;;;;;;;16.60;50.80;;;;;;5115290;28;19942;-71
2022/11/23 00:49:45;;;;;;;;;;;16.50;50.70;;;;;;5115306;28;19927;-71
2022/11/23 00:52:11;;;;;;;;;;;16.50;50.80;;;;;;5096737;28;20403;-71
2022/11/23 00:54:36;;;;;;;;;;;16.50;50.80;;;;;;5096873;28;19931;-71
2022/11/23 00:57:02;;;;;;;;;;;16.50;50.90;;;;;;5097026;28;19923;-71
2022/11/23 00:59:28;;;;;;;;;;;16.50;50.90;;;;;;5115393;28;20426;-70
2022/11/23 01:01:53;;;;;;;;;;;16.50;51.00;;;;;;5097110;28;20360;-71
2022/11/23 01:04:19;;;;;;;;;;;16.50;51.00;;;;;;5096965;28;20443;-70
2022/11/23 01:06:45;;;;;;;;;;;16.40;50.90;;;;;;5115288;28;19920;-70
2022/11/23 01:09:13;;;;;;;;;;;16.40;51.00;;;;;;5096900;28;20349;-71
2022/11/23 01:11:39;;;;;;;;;;;16.40;51.00;;;;;;5097163;28;20356;-70
2022/11/23 01:14:04;;;;;;;;;;;16.50;51.00;;;;;;5114894;28;19920;-72
2022/11/23 01:16:32;;;;;;;;;;;16.50;51.00;;;;;;5096199;28;19969;-70
2022/11/23 01:18:58;;;;;;;;;;;16.40;51.00;;;;;;5114630;28;20037;-71
2022/11/23 01:21:25;;;;;;;;;;;16.40;51.10;;;;;;5096770;28;19920;-71
2022/11/23 01:23:50;;;;;;;;;;;16.50;51.20;;;;;;5096532;28;20014;-71
2022/11/23 01:26:16;;;;;;;;;;;16.40;51.10;;;;;;5096606;28;20027;-71
2022/11/23 01:28:42;;;;;;;;;;;16.40;51.20;;;;;;5114495;28;20350;-71
2022/11/23 01:31:09;;;;;;;;;;;16.40;51.20;;;;;;5114660;28;19923;-71
2022/11/23 01:33:35;;;;;;;;;;;16.40;51.20;;;;;;5096477;28;19980;-70
2022/11/23 01:36:07;;;;;;;;;;;16.40;51.20;;;;;;5096206;28;19919;-70
2022/11/23 01:38:32;;;;;;;;;;;16.40;51.20;;;;;;5113544;28;20010;-70
2022/11/23 01:40:58;;;;;;;;;;;16.40;51.30;;;;;;5096248;28;19967;-71
2022/11/23 01:43:23;;;;;;;;;;;16.40;51.40;;;;;;5096344;28;20337;-71
2022/11/23 01:48:37;;;;;;;;;;;16.40;51.30;;;;;;5089806;28;20291;-71
2022/11/23 01:51:05;;;;;;;;;;;16.40;51.30;;;;;;5088652;28;20441;-71
2022/11/23 01:53:31;;;;;;;;;;;16.40;51.40;;;;;;5088808;28;20372;-71
2022/11/23 01:56:03;;;;;;;;;;;16.40;51.40;;;;;;5088345;28;19920;-70
2022/11/23 01:58:30;;;;;;;;;;;16.60;51.20;;;;;;5088787;28;19926;-71
2022/11/23 02:00:56;;;;;;;;;;;16.90;50.70;;;;;;5090067;28;20012;-70
2022/11/23 02:03:22;;;;;;;;;;;17.40;50.00;;;;;;5088438;28;20011;-70
2022/11/23 02:05:49;;;;;;;;;;;17.80;49.20;;;;;;5088625;28;19920;-70
2022/11/23 02:08:16;;;;;;;;;;;18.10;48.40;;;;;;5088242;28;19983;-72
2022/11/23 02:10:41;;;;;;;;;;;18.70;47.50;;;;;;5089499;28;19920;-70
2022/11/23 02:13:08;;;;;;;;;;;19.30;46.40;;;;;;5088672;28;20336;-70
2022/11/23 02:15:34;;;;;;;;;;;20.00;45.10;;;;;;5088401;28;19971;-70
2022/11/23 02:18:01;;;;;;;;;;;20.60;44.00;;;;;;5088020;28;20379;-70
2022/11/23 02:20:27;;;;;;;;;;;21.20;42.80;;;;;;5089353;28;20407;-70
2022/11/23 02:23:00;;;;;;;;;;;21.70;41.90;;;;;;5088342;28;19921;-70
2022/11/23 02:28:11;;;;;;;;;;;22.50;40.40;;;;;;5090399;28;19912;-70
2022/11/23 02:30:38;;;;;;;;;;;22.80;39.90;;;;;;5088868;28;19920;-70
2022/11/23 02:33:05;;;;;;;;;;;23.10;39.60;;;;;;5088883;28;20007;-70
2022/11/23 02:35:34;;;;;;;;;;;23.20;39.30;;;;;;5088475;28;19920;-70
2022/11/23 02:38:00;;;;;;;;;;;24.50;39.50;;;;;;5088476;28;19924;-70
2022/11/23 02:40:27;;;;;;;;;;;23.50;38.70;;;;;;5088617;28;19943;-70
2022/11/23 02:42:53;;;;;;;;;;;23.70;38.50;;;;;;5105335;28;19920;-71
2022/11/23 02:45:24;;;;;;;;;;;23.90;38.20;;;;;;5088663;28;19920;-71
2022/11/23 02:47:49;;;;;;;;;;;24.00;38.10;;;;;;5088174;28;19931;-71
2022/11/23 02:50:15;;;;;;;;;;;24.20;37.90;;;;;;5089521;28;19924;-71
2022/11/23 02:52:40;;;;;;;;;;;24.20;37.70;;;;;;5089517;28;19920;-71
2022/11/23 02:55:06;;;;;;;;;;;24.30;37.60;;;;;;5089354;28;19924;-71
2022/11/23 02:57:31;;;;;;;;;;;24.30;37.50;;;;;;5089297;28;19974;-70
2022/11/23 02:59:57;;;;;;;;;;;24.40;37.50;;;;;;5088028;28;19920;-70
2022/11/23 03:02:22;;;;;;;;;;;24.40;37.40;;;;;;5087967;28;19928;-70
2022/11/23 03:04:48;;;;;;;;;;;24.50;37.30;;;;;;5088321;28;19920;-70
2022/11/23 03:07:13;;;;;;;;;;;24.50;37.20;;;;;;5089139;28;19924;-72
2022/11/23 03:09:39;;;;;;;;;;;24.60;37.10;;;;;;5088215;28;19920;-71
2022/11/23 03:12:05;;;;;;;;;;;24.60;37.20;;;;;;5104782;28;20387;-70
2022/11/23 03:14:30;;;;;;;;;;;24.70;37.10;;;;;;5088008;28;19962;-71
2022/11/23 03:16:56;;;;;;;;;;;24.80;37.20;;;;;;5088234;28;19924;-71
2022/11/23 03:19:21;;;;;;;;;;;24.70;37.10;;;;;;5087732;28;20330;-70
2022/11/23 03:21:47;;;;;;;;;;;24.80;37.00;;;;;;5087654;28;20015;-70
2022/11/23 03:24:12;;;;;;;;;;;24.80;36.90;;;;;;5087962;28;20010;-70
2022/11/23 03:26:38;;;;;;;;;;;24.90;37.00;;;;;;5096414;28;20371;-72
2022/11/23 03:29:03;;;;;;;;;;;24.90;36.80;;;;;;5090727;28;20419;-71
2022/11/23 03:31:29;;;;;;;;;;;25.00;36.80;;;;;;5109060;28;19930;-71
2022/11/23 03:33:54;;;;;;;;;;;24.90;36.70;;;;;;5108916;28;19924;-71
2022/11/23 03:36:20;;;;;;;;;;;25.00;36.70;;;;;;5109094;28;19920;-71
2022/11/23 03:38:46;;;;;;;;;;;25.00;36.70;;;;;;5099216;28;19964;-70
2022/11/23 03:41:11;;;;;;;;;;;24.90;36.70;;;;;;5095287;28;19923;-71
2022/11/23 03:43:36;;;;;;;;;;;24.90;36.90;;;;;;5095186;28;20390;-71
2022/11/23 03:46:02;;;;;;;;;;;24.90;36.90;;;;;;5077093;28;19983;-71
2022/11/23 03:48:28;;;;;;;;;;;24.90;37.00;;;;;;5095131;28;20003;-70
2022/11/23 03:50:53;;;;;;;;;;;24.80;36.90;;;;;;5077324;28;19920;-71
2022/11/23 03:53:19;;;;;;;;;;;24.90;37.00;;;;;;5094361;28;19924;-72
2022/11/23 03:55:45;;;;;;;;;;;24.90;36.90;;;;;;5076975;28;19927;-71
2022/11/23 03:58:11;;;;;;;;;;;25.00;36.90;;;;;;5094853;28;20287;-70
2022/11/23 04:00:36;;;;;;;;;;;25.00;36.80;;;;;;5076773;28;19927;-70
2022/11/23 04:03:02;;;;;;;;;;;25.10;36.80;;;;;;5076594;28;19920;-70
2022/11/23 04:05:27;;;;;;;;;;;25.10;36.70;;;;;;5077014;28;19920;-70
2022/11/23 04:07:53;;;;;;;;;;;25.20;36.70;;;;;;5076570;28;20384;-71
2022/11/23 04:10:19;;;;;;;;;;;25.20;36.50;;;;;;5076823;28;19942;-70
2022/11/23 04:12:44;;;;;;;;;;;25.30;36.50;;;;;;5076616;28;20383;-71
2022/11/23 04:15:10;;;;;;;;;;;25.30;36.50;;;;;;5094605;28;19920;-70
2022/11/23 04:17:36;;;;;;;;;;;25.40;36.50;;;;;;5076340;28;19965;-70
2022/11/23 04:20:01;;;;;;;;;;;25.40;36.40;;;;;;5094043;28;19979;-70
2022/11/23 04:22:27;;;;;;;;;;;25.40;36.30;;;;;;5094519;28;19929;-70
2022/11/23 04:24:52;;;;;;;;;;;25.50;36.40;;;;;;5076239;28;19924;-71
2022/11/23 04:27:18;;;;;;;;;;;25.40;36.30;;;;;;5076083;28;19949;-72
2022/11/23 04:29:43;;;;;;;;;;;25.50;36.30;;;;;;5076199;28;19927;-71
2022/11/23 04:32:09;;;;;;;;;;;25.50;36.30;;;;;;5076140;28;20074;-71
2022/11/23 04:34:34;;;;;;;;;;;25.50;36.30;;;;;;5076291;28;19935;-72
2022/11/23 04:37:00;;;;;;;;;;;25.50;36.40;;;;;;5076061;28;20403;-72
2022/11/23 04:39:25;;;;;;;;;;;25.50;36.30;;;;;;5076234;28;19989;-71
2022/11/23 04:41:51;;;;;;;;;;;25.50;36.30;;;;;;5076047;28;20608;-72
2022/11/23 04:44:16;;;;;;;;;;;25.50;36.30;;;;;;5076157;28;19920;-72
2022/11/23 04:46:42;;;;;;;;;;;25.50;36.20;;;;;;5075903;28;19924;-70
2022/11/23 04:49:08;;;;;;;;;;;25.50;36.20;;;;;;5075540;28;19921;-70
2022/11/23 04:51:33;;;;;;;;;;;25.60;36.30;;;;;;5075595;28;20283;-72
2022/11/23 04:53:59;;;;;;;;;;;25.50;36.30;;;;;;5094016;28;20388;-71
2022/11/23 04:56:24;;;;;;;;;;;25.50;36.20;;;;;;5076098;28;19959;-71
2022/11/23 04:58:50;;;;;;;;;;;25.50;36.30;;;;;;5075893;28;19920;-70
2022/11/23 05:01:15;;;;;;;;;;;25.50;36.40;;;;;;5093678;28;20292;-70
2022/11/23 05:03:41;;;;;;;;;;;25.60;36.40;;;;;;5075820;28;20318;-72
2022/11/23 05:06:08;;;;;;;;;;;25.60;36.40;;;;;;5075554;28;19930;-70
2022/11/23 05:08:33;;;;;;;;;;;25.60;36.30;;;;;;5075459;28;20212;-71
2022/11/23 05:10:59;;;;;;;;;;;25.70;36.30;;;;;;5075638;28;19971;-72
2022/11/23 05:13:24;;;;;;;;;;;25.80;36.30;;;;;;5075601;28;20325;-70
2022/11/23 05:15:50;;;;;;;;;;;25.90;36.20;;;;;;5075562;28;19930;-72
2022/11/23 05:18:15;;;;;;;;;;;26.00;36.10;;;;;;5075494;28;20015;-71
2022/11/23 05:20:41;;;;;;;;;;;26.00;35.90;;;;;;5075169;28;20324;-71
2022/11/23 05:23:07;;;;;;;;;;;26.10;35.80;;;;;;5075359;28;19920;-71
2022/11/23 05:25:32;;;;;;;;;;;26.20;35.70;;;;;;5075098;28;19920;-70
2022/11/23 05:27:58;;;;;;;;;;;26.30;35.60;;;;;;5074800;28;19924;-71
2022/11/23 05:30:23;;;;;;;;;;;26.40;35.50;;;;;;5075048;28;19920;-72
2022/11/23 05:32:49;;;;;;;;;;;26.40;35.50;;;;;;5093058;28;19920;-72
2022/11/23 05:35:14;;;;;;;;;;;26.40;35.40;;;;;;5074808;28;19927;-72
2022/11/23 05:37:40;;;;;;;;;;;26.40;35.40;;;;;;5075179;28;19927;-70
2022/11/23 05:40:06;;;;;;;;;;;26.40;35.40;;;;;;5075098;28;19920;-70
2022/11/23 05:42:32;;;;;;;;;;;26.50;35.50;;;;;;5093098;28;20015;-71
2022/11/23 05:44:57;;;;;;;;;;;26.40;35.50;;;;;;5074769;28;20391;-70
2022/11/23 05:47:23;;;;;;;;;;;26.40;35.60;;;;;;5074702;28;19925;-71
2022/11/23 05:49:49;;;;;;;;;;;26.30;35.50;;;;;;5074668;28;19920;-71
2022/11/23 05:52:15;;;;;;;;;;;26.30;35.50;;;;;;5075133;28;19939;-70
2022/11/23 05:54:41;;;;;;;;;;;26.30;35.60;;;;;;5074959;28;19920;-70
2022/11/23 05:57:06;;;;;;;;;;;26.30;35.70;;;;;;5074861;28;20027;-71
2022/11/23 05:59:32;;;;;;;;;;;26.20;35.70;;;;;;5092744;28;20367;-71
2022/11/23 06:01:57;;;;;;;;;;;26.20;35.80;;;;;;5092406;28;20411;-71
2022/11/23 06:04:23;;;;;;;;;;;26.10;35.80;;;;;;5092614;28;20015;-71
2022/11/23 06:06:48;;;;;;;;;;;26.10;35.80;;;;;;5074542;28;19924;-70
2022/11/23 06:09:14;;;;;;;;;;;26.10;35.90;;;;;;5074336;28;19920;-70
2022/11/23 06:11:40;;;;;;;;;;;26.10;35.90;;;;;;5092763;28;19934;-70
2022/11/23 06:14:05;;;;;;;;;;;26.10;35.90;;;;;;5074588;28;19920;-73
2022/11/23 06:16:31;;;;;;;;;;;26.10;36.00;;;;;;5092565;28;20335;-70
2022/11/23 06:18:56;;;;;;;;;;;26.00;36.00;;;;;;5092436;28;19920;-70
2022/11/23 06:21:22;;;;;;;;;;;26.00;36.00;;;;;;5074653;28;19927;-70
2022/11/23 06:23:48;;;;;;;;;;;26.00;36.00;;;;;;5074251;28;19920;-71
2022/11/23 06:26:13;;;;;;;;;;;26.00;36.00;;;;;;5074019;28;19932;-70
2022/11/23 06:28:40;;;;;;;;;;;26.00;36.10;;;;;;5092488;28;19930;-72
2022/11/23 06:31:05;;;;;;;;;;;25.90;36.00;;;;;;5092419;28;19920;-70
2022/11/23 06:33:31;;;;;;;;;;;26.00;36.00;;;;;;5074403;28;19924;-70
2022/11/23 06:35:58;;;;;;;;;;;26.00;36.00;;;;;;5074475;28;20338;-70
2022/11/23 06:38:24;;;;;;;;;;;26.00;36.00;;;;;;5074395;28;20005;-70
2022/11/23 06:40:50;;;;;;;;;;;26.00;36.00;;;;;;5092467;28;19927;-70
2022/11/23 06:43:15;;;;;;;;;;;26.10;36.10;;;;;;5088094;28;19920;-70
2022/11/23 06:45:41;;;;;;;;;;;26.10;35.60;;;;;;5089357;28;19966;-68
2022/11/23 06:48:07;;;;;;;;;;;26.10;35.60;;;;;;5083906;28;20300;-67
2022/11/23 06:50:33;;;;;;;;;;;25.90;35.70;;;;;;5084805;28;20352;-65
2022/11/23 06:52:59;;;;;;;;;;;25.80;35.70;;;;;;5067774;28;20015;-66
2022/11/23 06:55:24;;;;;;;;;;;25.70;35.90;;;;;;5085069;28;20003;-65
2022/11/23 06:57:50;;;;;;;;;;;25.80;36.20;;;;;;5076658;28;19928;-68
2022/11/23 07:00:16;;;;;;;;;;;25.70;36.40;;;;;;5055090;28;19989;-67
2022/11/23 07:02:42;;;;;;;;;;;25.80;36.40;;;;;;5084192;28;20390;-68
2022/11/23 07:05:08;;;;;;;;;;;25.70;36.20;;;;;;5064351;28;20133;-65
2022/11/23 07:07:33;;;;;;;;;;;25.80;36.20;;;;;;5069924;28;19926;-67
2022/11/23 07:09:59;;;;;;;;;;;25.90;36.20;;;;;;5069764;28;20295;-68
2022/11/23 07:12:24;;;;;;;;;;;25.90;36.10;;;;;;5069533;28;20081;-67
2022/11/23 07:14:50;;;;;;;;;;;26.00;36.20;;;;;;5073153;28;19920;-76
2022/11/23 07:17:15;;;;;;;;;;;25.90;36.20;;;;;;5051358;28;19925;-69
2022/11/23 07:19:41;;;;;;;;;;;25.90;36.50;;;;;;5058800;28;20023;-70
2022/11/23 07:22:06;;;;;;;;;;;26.10;36.60;;;;;;5068224;28;19924;-70
2022/11/23 07:24:32;;;;;;;;;;;26.40;36.40;;;;;;5054502;28;20131;-70
2022/11/23 07:26:57;;;;;;;;;;;26.60;36.00;;;;;;5075026;28;19971;-70
2022/11/23 07:29:23;;;;;;;;;;;26.80;35.80;;;;;;5056819;28;20003;-70
2022/11/23 07:31:49;;;;;;;;;;;27.00;35.50;;;;;;5073078;28;19945;-75
2022/11/23 07:34:14;;;;;;;;;;;27.10;35.40;;;;;;5078989;28;20517;-71
2022/11/23 07:36:40;;;;;;;;;;;27.20;35.10;;;;;;5056691;28;19962;-71
2022/11/23 07:39:06;;;;;;;;;;;27.00;35.00;;;;;;5057130;28;19935;-71
2022/11/23 07:41:31;;;;;;;;;;;26.70;35.50;;;;;;5064979;28;19928;-72
2022/11/23 07:43:57;;;;;;;;;;;26.50;35.90;;;;;;5075155;28;20372;-73
2022/11/23 07:46:23;;;;;;;;;;;26.40;35.80;;;;;;5075088;28;19973;-71
2022/11/23 07:48:48;;;;;;;;;;;26.00;36.10;;;;;;5077803;28;19920;-71
2022/11/23 07:51:15;;;;;;;;;;;25.80;36.70;;;;;;5059929;28;19924;-70
2022/11/23 07:53:40;;;;;;;;;;;25.50;37.20;;;;;;5057205;28;19927;-71
2022/11/23 07:56:06;;;;;;;;;;;25.30;37.50;;;;;;5074908;28;19925;-72
2022/11/23 07:58:32;;;;;;;;;;;25.30;37.90;;;;;;5079013;28;19931;-70
2022/11/23 08:00:57;;;;;;;;;;;25.20;38.10;;;;;;5058690;28;20291;-72
2022/11/23 08:03:23;;;;;;;;;;;25.50;38.00;;;;;;5078166;28;20353;-71
2022/11/23 08:05:48;;;;;;;;;;;25.80;37.80;;;;;;5075588;28;20364;-72
2022/11/23 08:08:14;;;;;;;;;;;25.90;37.30;;;;;;5055669;28;20415;-74
2022/11/23 08:10:40;;;;;;;;;;;25.90;38.00;;;;;;5072703;28;19925;-73
2022/11/23 08:13:05;;;;;;;;;;;25.80;37.60;;;;;;5068298;28;19974;-73
2022/11/23 08:15:31;;;;;;;;;;;25.90;37.70;;;;;;5069073;28;19928;-70
2022/11/23 08:17:59;;;;;;;;;;;26.10;37.60;;;;;;5057709;28;19928;-74
2022/11/23 08:20:25;;;;;;;;;;;26.30;36.30;;;;;;5076547;28;20388;-71
2022/11/23 08:22:51;;;;;;;;;;;26.20;36.60;;;;;;5075048;28;19925;-72
2022/11/23 08:25:17;;;;;;;;;;;26.20;36.90;;;;;;5073520;28;19969;-72
2022/11/23 08:27:42;;;;;;;;;;;26.30;37.00;;;;;;5057396;28;19929;-72
2022/11/23 08:30:08;;;;;;;;;;;26.30;36.90;;;;;;5076416;28;19935;-71
2022/11/23 08:32:34;;;;;;;;;;;26.40;36.60;;;;;;5077201;28;19924;-72
2022/11/23 08:34:59;;;;;;;;;;;26.30;36.60;;;;;;5076257;28;19925;-71
2022/11/23 08:37:25;;;;;;;;;;;26.30;36.90;;;;;;5074610;28;19928;-71
2022/11/23 08:39:50;;;;;;;;;;;26.30;36.90;;;;;;5074806;28;19920;-71
2022/11/23 08:42:16;;;;;;;;;;;26.40;36.90;;;;;;5057118;28;19925;-71
2022/11/23 08:44:41;;;;;;;;;;;26.40;36.80;;;;;;5060673;28;19928;-70
2022/11/23 08:47:07;;;;;;;;;;;26.50;36.80;;;;;;5070875;28;20524;-69
2022/11/23 08:49:32;;;;;;;;;;;26.60;36.80;;;;;;5055995;28;19924;-72
2022/11/23 08:51:59;;;;;;;;;;;26.50;37.60;;;;;;5055131;28;19924;-71
2022/11/23 08:54:24;;;;;;;;;;;26.40;36.90;;;;;;5059690;28;19931;-74
2022/11/23 08:56:50;;;;;;;;;;;26.40;37.00;;;;;;5075766;28;19924;-69
2022/11/23 08:59:16;;;;;;;;;;;26.30;37.10;;;;;;5072068;28;20494;-69
2022/11/23 09:01:42;;;;;;;;;;;26.10;38.00;;;;;;5060102;28;20023;-78
2022/11/23 09:04:08;;;;;;;;;;;26.00;37.40;;;;;;5055780;28;20242;-71
2022/11/23 09:06:34;;;;;;;;;;;25.90;37.50;;;;;;5060047;28;19928;-73
2022/11/23 09:08:59;;;;;;;;;;;25.80;37.80;;;;;;5066737;28;19989;-73
2022/11/23 09:11:25;;;;;;;;;;;25.50;37.80;;;;;;5062497;28;19976;-67
2022/11/23 09:13:51;;;;;;;;;;;25.50;38.30;;;;;;5057644;28;19924;-73
2022/11/23 09:16:16;;;;;;;;;;;25.30;38.20;;;;;;5070174;28;20288;-71
2022/11/23 09:18:42;;;;;;;;;;;25.20;38.40;;;;;;5061457;28;19920;-73
2022/11/23 09:21:08;;;;;;;;;;;25.20;38.60;;;;;;5061800;28;20364;-71
2022/11/23 09:23:34;;;;;;;;;;;25.20;38.40;;;;;;5075096;28;19919;-73
2022/11/23 09:26:00;;;;;;;;;;;25.30;38.50;;;;;;5061332;28;19927;-73
2022/11/23 09:28:27;;;;;;;;;;;25.30;38.40;;;;;;5064045;28;19939;-73
2022/11/23 09:30:53;;;;;;;;;;;25.30;38.20;;;;;;5063984;28;20369;-67
2022/11/23 09:33:19;;;;;;;;;;;25.40;38.10;;;;;;5068948;28;19972;-78
2022/11/23 09:35:44;;;;;;;;;;;25.50;38.00;;;;;;5052844;28;20387;-71
2022/11/23 09:38:10;;;;;;;;;;;25.60;37.80;;;;;;5050852;28;20694;-73
2022/11/23 09:40:37;;;;;;;;;;;25.80;37.70;;;;;;5074133;28;19924;-81
2022/11/23 09:43:22;;;;;;;;;;;25.90;37.90;;;;;;5052994;28;19924;-78
2022/11/23 09:45:50;;;;;;;;;;;25.90;37.70;;;;;;5053643;28;20023;-74
2022/11/23 09:48:35;;;;;;;;;;;26.10;37.30;;;;;;5068647;28;20023;-78
2022/11/23 09:51:08;;;;;;;;;;;26.00;37.30;;;;;;5051928;28;19928;-82
2022/11/23 09:53:38;;;;;;;;;;;26.10;37.50;;;;;;5053470;28;20491;-80
2022/11/23 09:56:04;;;;;;;;;;;26.20;37.30;;;;;;5062008;28;19934;-80
2022/11/23 09:58:32;;;;;;;;;;;26.50;37.10;;;;;;5054642;28;19924;-86
2022/11/23 10:01:02;;;;;;;;;;;26.80;37.00;;;;;;5052856;28;20018;-74
2022/11/23 10:03:28;;;;;;;;;;;26.80;36.70;;;;;;5072428;28;20039;-77
2022/11/23 10:05:58;;;;;;;;;;;26.80;36.70;;;;;;5070165;28;20388;-76
2022/11/23 10:11:19;;;;;;;;;;;26.80;36.80;;;;;;5094792;27;1912025;-81
2022/11/23 10:13:51;;;;;;;;;;;26.60;36.90;;;;;;5135234;27;19927;-76
2022/11/23 10:16:37;;;;;;;;;;;26.50;37.00;;;;;;5144733;27;19923;-84
2022/11/23 10:19:22;;;;;;;;;;;26.20;37.10;;;;;;5143729;27;20401;-81
2022/11/23 10:21:54;;;;;;;;;;;26.00;37.60;;;;;;5145844;27;19930;-80
2022/11/23 10:24:23;;;;;;;;;;;25.90;37.90;;;;;;5131811;27;20577;-77
2022/11/23 10:26:49;;;;;;;;;;;25.80;37.90;;;;;;5133201;27;19923;-78
2022/11/23 10:29:21;;;;;;;;;;;25.80;38.00;;;;;;5154700;27;19923;-73
2022/11/23 10:31:48;;;;;;;;;;;25.70;38.20;;;;;;5154042;27;19923;-79
2022/11/23 10:34:16;;;;;;;;;;;25.60;38.50;;;;;;5133155;27;19923;-83
2022/11/23 10:36:41;;;;;;;;;;;25.50;38.80;;;;;;5139634;27;19923;-82
2022/11/23 10:39:15;;;;;;;;;;;25.50;38.90;;;;;;5155671;27;19934;-79
2022/11/23 10:41:40;;;;;;;;;;;25.50;39.00;;;;;;5156947;27;19923;-75
2022/11/23 10:44:25;;;;;;;;;;;25.60;38.90;;;;;;5140817;27;20278;-82
2022/11/23 10:46:51;;;;;;;;;;;25.50;38.90;;;;;;5138714;27;20353;-81
2022/11/23 10:49:18;;;;;;;;;;;25.40;39.00;;;;;;5142221;27;19926;-79
2022/11/23 10:51:49;;;;;;;;;;;25.50;39.10;;;;;;5155880;27;19923;-75
2022/11/23 10:57:20;;;;;;;;;;;25.70;39.00;;;;;;5083411;27;19920;-75
2022/11/23 10:59:56;;;;;;;;;;;25.70;38.80;;;;;;5074970;28;19929;-76
2022/11/23 11:02:21;;;;;;;;;;;25.90;38.70;;;;;;5115988;28;19928;-80
2022/11/23 11:04:52;;;;;;;;;;;26.00;38.70;;;;;;5082859;28;19924;-73
2022/11/23 11:09:59;;;;;;;;;;;25.60;38.60;;;;;;5091998;27;1863993;-71
2022/11/23 11:12:26;;;;;;;;;;;25.30;38.90;;;;;;5137562;27;19920;-76
2022/11/23 11:14:55;;;;;;;;;;;25.20;39.30;;;;;;5137112;27;19925;-74
2022/11/23 11:17:25;;;;;;;;;;;25.50;39.80;;;;;;5137421;27;19934;-70
2022/11/23 11:19:51;;;;;;;;;;;25.30;39.20;;;;;;5144440;27;19970;-73
2022/11/23 11:22:33;;;;;;;;;;;25.40;39.20;;;;;;5133597;27;19958;-72
2022/11/23 11:24:59;;;;;;;;;;;25.50;39.20;;;;;;5151054;27;20428;-77
2022/11/23 11:27:27;;;;;;;;;;;25.70;38.80;;;;;;5123391;27;19933;-77
2022/11/23 11:29:54;;;;;;;;;;;25.60;38.70;;;;;;5118173;27;19930;-75
2022/11/23 11:32:22;;;;;;;;;;;25.50;38.90;;;;;;5160313;27;19930;-76
2022/11/23 11:34:54;;;;;;;;;;;25.40;39.10;;;;;;5184448;27;19918;-76
2022/11/23 11:40:11;;;;;;;;;;;25.50;39.00;;;;;;5102488;27;19918;-75
2022/11/23 11:42:40;;;;;;;;;;;24.00;38.00;;;;;;5102302;28;19924;-76
2022/11/23 11:45:10;;;;;;;;;;;25.60;38.80;;;;;;5099067;28;19921;-73
2022/11/23 11:47:40;;;;;;;;;;;25.60;38.70;;;;;;5090742;28;19927;-73
2022/11/23 11:50:19;;;;;;;;;;;25.70;38.80;;;;;;5086432;28;19926;-72
2022/11/23 11:52:46;;;;;;;;;;;25.70;38.30;;;;;;5090837;28;19920;-72
2022/11/23 11:55:16;;;;;;;;;;;25.60;38.00;;;;;;5090133;28;20312;-74
2022/11/23 11:57:46;;;;;;;;;;;25.50;38.10;;;;;;5086854;28;19951;-73
2022/11/23 12:00:14;;;;;;;;;;;25.40;37.80;;;;;;5086455;28;19948;-70
2022/11/23 12:10:49;;;;;;;;;;;25.20;38.30;;;;;;5087037;28;20365;-72
2022/11/23 12:13:16;;;;;;;;;;;25.40;38.40;;;;;;5083342;28;19920;-75
2022/11/23 12:15:45;;;;;;;;;;;25.60;38.40;;;;;;5086260;28;19959;-79
2022/11/23 12:26:25;;;;;;;;;;;26.20;38.20;;;;;;5106882;27;19911;-71
2022/11/23 12:29:10;;;;;;;;;;;26.30;38.20;;;;;;5089253;28;19920;-73
2022/11/23 12:34:27;;;;;;;;;;;26.10;38.60;;;;;;5088367;28;20394;-78
2022/11/23 12:40:00;;;;;;;;;;;25.80;39.10;;;;;;5070329;28;19952;-72
2022/11/23 12:42:34;;;;;;;;;;;25.50;39.30;;;;;;5075225;28;19933;-72
2022/11/23 12:47:55;;;;;;;;;;;25.30;40.00;;;;;;5107887;27;20403;-83
2022/11/23 12:50:26;;;;;;;;;;;25.10;40.30;;;;;;5106150;28;19926;-73
2022/11/23 12:55:41;;;;;;;;;;;24.80;41.10;;;;;;5106992;27;19945;-77
2022/11/23 13:00:47;;;;;;;;;;;24.50;41.70;;;;;;5107776;27;19922;-75
2022/11/23 13:03:33;;;;;;;;;;;24.40;42.00;;;;;;5085784;28;19920;-75
2022/11/23 13:06:18;;;;;;;;;;;24.20;42.30;;;;;;5092750;28;19927;-70
2022/11/23 13:08:54;;;;;;;;;;;24.10;42.70;;;;;;5075858;28;19935;-73
2022/11/23 13:11:39;;;;;;;;;;;23.90;41.90;;;;;;5092907;28;20383;-72
2022/11/23 13:14:10;;;;;;;;;;;23.60;41.90;;;;;;5074667;28;19927;-75
2022/11/23 13:16:43;;;;;;;;;;;23.40;42.30;;;;;;5084616;28;19967;-74
2022/11/23 13:19:22;;;;;;;;;;;23.30;42.50;;;;;;5071726;28;19932;-74
2022/11/23 13:21:48;;;;;;;;;;;23.10;42.70;;;;;;5086608;28;20286;-76
2022/11/23 13:24:30;;;;;;;;;;;23.10;42.80;;;;;;5090015;28;20002;-75
2022/11/23 13:27:15;;;;;;;;;;;23.00;42.90;;;;;;5094117;28;19925;-76
2022/11/23 13:32:47;;;;;;;;;;;22.80;42.40;;;;;;5117094;27;1869701;-69
2022/11/23 13:40:43;;;;;;;;;;;22.10;42.90;;;;;;5127433;27;20198;-77
2022/11/23 13:43:14;;;;;;;;;;;22.10;43.10;;;;;;5127551;28;19978;-77
2022/11/23 13:45:40;;;;;;;;;;;21.90;42.90;;;;;;5125549;28;19927;-77
2022/11/23 13:56:23;;;;;;;;;;;21.70;43.50;;;;;;5107595;27;20391;-75
2022/11/23 13:58:49;;;;;;;;;;;21.70;43.50;;;;;;5081043;28;19927;-71
2022/11/23 14:01:35;;;;;;;;;;;21.60;43.40;;;;;;5077748;28;20241;-76
2022/11/23 14:04:20;;;;;;;;;;;21.50;43.50;;;;;;5108159;27;19924;-76
2022/11/23 14:15:21;;;;;;;;;;;21.40;43.70;;;;;;5099226;27;1867161;-75
2022/11/23 14:18:07;;;;;;;;;;;21.40;43.70;;;;;;5137589;27;19923;-75
2022/11/23 14:20:42;;;;;;;;;;;21.40;43.80;;;;;;5140553;27;19923;-75
2022/11/23 14:28:53;;;;;;;;;;;21.30;43.80;;;;;;5115248;27;1861634;-76
2022/11/23 14:31:24;;;;;;;;;;;21.30;43.80;;;;;;5143782;27;19919;-76
2022/11/23 14:33:55;;;;;;;;;;;21.20;43.90;;;;;;5131459;27;19949;-76
2022/11/23 14:36:40;;;;;;;;;;;21.20;43.90;;;;;;5149375;27;20279;-75
2022/11/23 14:41:52;;;;;;;;;;;21.20;43.90;;;;;;5088710;28;19961;-69
2022/11/23 14:44:20;;;;;;;;;;;21.10;43.90;;;;;;5087580;28;20376;-76
2022/11/23 14:47:05;;;;;;;;;;;21.10;44.00;;;;;;5087573;28;20364;-77
2022/11/23 14:49:31;;;;;;;;;;;21.10;44.00;;;;;;5087154;28;20041;-76
2022/11/23 14:51:57;;;;;;;;;;;21.00;44.10;;;;;;5105538;28;19982;-75
2022/11/23 14:54:24;;;;;;;;;;;21.00;44.20;;;;;;5088242;28;20293;-76
2022/11/23 14:56:50;;;;;;;;;;;21.00;44.20;;;;;;5088585;28;20391;-76
2022/11/23 15:01:58;;;;;;;;;;;20.90;44.20;;;;;;5110348;27;19919;-75
2022/11/23 15:04:25;;;;;;;;;;;20.90;44.30;;;;;;5109131;28;20375;-76
2022/11/23 15:06:54;;;;;;;;;;;20.90;44.30;;;;;;5109398;28;20026;-76
2022/11/23 15:09:35;;;;;;;;;;;20.80;44.20;;;;;;5110130;28;20292;-75
2022/11/23 15:12:05;;;;;;;;;;;20.70;44.20;;;;;;5143480;27;19947;-77
2022/11/23 15:14:30;;;;;;;;;;;20.80;44.40;;;;;;5108694;28;20037;-77
2022/11/23 15:17:11;;;;;;;;;;;20.60;44.30;;;;;;5108604;28;20138;-76
2022/11/23 15:19:36;;;;;;;;;;;20.70;44.40;;;;;;5143071;27;19946;-76
2022/11/23 15:22:02;;;;;;;;;;;20.70;44.50;;;;;;5142904;27;19920;-77
2022/11/23 15:24:28;;;;;;;;;;;20.70;44.50;;;;;;5143182;27;20129;-76
2022/11/23 15:27:01;;;;;;;;;;;20.70;44.50;;;;;;5108459;28;20375;-74
2022/11/23 15:29:28;;;;;;;;;;;20.60;44.40;;;;;;5142984;27;20011;-76
2022/11/23 15:31:53;;;;;;;;;;;20.60;44.50;;;;;;5108588;28;19924;-74
2022/11/23 15:34:19;;;;;;;;;;;20.60;44.60;;;;;;5108308;28;20449;-76
2022/11/23 15:36:45;;;;;;;;;;;20.60;44.50;;;;;;5142940;27;19920;-76
2022/11/23 15:39:15;;;;;;;;;;;20.60;44.60;;;;;;5108002;28;19942;-77
2022/11/23 15:41:41;;;;;;;;;;;20.50;44.60;;;;;;5109403;28;19942;-76